createdAt,value
2023-03-02T00:01:49.517Z,7.85
2023-03-02T00:04:21.878Z,8.07
2023-03-02T00:06:51.616Z,7.35
2023-03-02T00:09:20.092Z,7.68
2023-03-02T00:11:49.781Z,7.03
2023-03-02T00:14:18.074Z,6.05
2023-03-02T00:16:49.216Z,7.70
2023-03-02T00:19:17.383Z,6.82
2023-03-02T00:21:48.672Z,7.53
2023-03-02T00:24:16.845Z,6.35
2023-03-02T00:26:45.715Z,7.32
2023-03-02T00:29:15.914Z,7.63
2023-03-02T00:31:44.265Z,7.25
2023-03-02T00:34:12.619Z,5.93
2023-03-02T00:36:41.015Z,7.88
2023-03-02T00:39:09.461Z,7.18
2023-03-02T00:41:37.648Z,7.25
2023-03-02T00:44:07.482Z,6.18
2023-03-02T00:46:37.070Z,7.05
2023-03-02T00:49:05.271Z,5.40
2023-03-02T00:51:34.052Z,5.70
2023-03-02T00:54:03.103Z,5.78
2023-03-02T00:56:31.673Z,6.32
2023-03-02T00:59:00.186Z,5.18
2023-03-02T01:01:28.801Z,5.63
2023-03-02T01:03:58.384Z,6.00
2023-03-02T01:06:29.677Z,5.40
2023-03-02T01:08:57.896Z,5.18
2023-03-02T01:11:26.108Z,5.75
2023-03-02T01:13:54.319Z,4.57
2023-03-02T01:16:22.545Z,6.38
2023-03-02T01:18:50.871Z,7.70
2023-03-02T01:21:20.387Z,6.45
2023-03-02T01:23:48.574Z,5.38
2023-03-02T01:26:16.772Z,5.65
2023-03-02T01:28:45.032Z,6.68
2023-03-02T01:31:13.248Z,5.50
2023-03-02T01:33:41.548Z,5.97
2023-03-02T01:36:09.950Z,4.30
2023-03-02T01:38:39.650Z,6.28
2023-03-02T01:41:07.954Z,5.25
2023-03-02T01:43:36.327Z,6.95
2023-03-02T01:46:08.196Z,6.25
2023-03-02T01:48:47.515Z,5.47
2023-03-02T01:51:21.908Z,5.15
2023-03-02T01:53:56.190Z,5.00
2023-03-02T01:56:30.652Z,4.05
2023-03-02T01:59:03.468Z,6.35
2023-03-02T02:01:33.210Z,6.47
2023-03-02T02:04:02.848Z,5.80
2023-03-02T02:06:36.626Z,5.10
2023-03-02T02:09:10.451Z,4.93
2023-03-02T02:11:38.835Z,5.88
2023-03-02T02:14:07.835Z,4.97
2023-03-02T02:16:37.661Z,4.80
2023-03-02T02:19:13.066Z,6.40
2023-03-02T02:21:42.495Z,5.00
2023-03-02T02:24:17.498Z,6.57
2023-03-02T02:26:48.984Z,7.03
2023-03-02T02:29:22.759Z,6.68
2023-03-02T02:31:55.670Z,6.47
2023-03-02T02:34:28.311Z,8.32
2023-03-02T02:37:01.895Z,6.22
2023-03-02T02:39:33.226Z,6.45
2023-03-02T02:42:07.974Z,5.30
2023-03-02T02:44:36.278Z,5.72
2023-03-02T02:47:04.570Z,4.70
2023-03-02T02:49:35.253Z,7.25
2023-03-02T02:52:05.821Z,7.25
2023-03-02T02:54:37.354Z,6.95
2023-03-02T02:57:07.219Z,8.30
2023-03-02T02:59:40.043Z,6.93
2023-03-02T03:02:16.503Z,6.22
2023-03-02T03:04:44.813Z,7.65
2023-03-02T03:07:17.271Z,6.03
2023-03-02T03:09:46.690Z,6.10
2023-03-02T03:12:20.007Z,7.00
2023-03-02T03:14:49.019Z,5.70
2023-03-02T03:17:17.401Z,7.35
2023-03-02T03:19:52.919Z,5.97
2023-03-02T03:22:21.831Z,6.25
2023-03-02T03:24:51.804Z,6.45
2023-03-02T03:27:21.789Z,6.82
2023-03-02T03:29:50.023Z,5.95
2023-03-02T03:32:21.301Z,6.40
2023-03-02T03:34:52.266Z,6.13
2023-03-02T03:37:26.037Z,7.22
2023-03-02T03:39:54.574Z,9.85
2023-03-02T03:42:24.186Z,6.60
2023-03-02T03:44:53.476Z,6.80
2023-03-02T03:47:22.814Z,7.72
2023-03-02T03:49:52.247Z,7.80
2023-03-02T03:52:30.626Z,9.90
2023-03-02T03:55:06.688Z,8.18
2023-03-02T03:57:36.356Z,8.57
2023-03-02T04:00:08.934Z,7.20
2023-03-02T04:02:42.540Z,6.78
2023-03-02T04:05:12.968Z,8.98
2023-03-02T04:07:42.306Z,6.82
2023-03-02T04:10:12.346Z,7.63
2023-03-02T04:12:43.756Z,6.82
2023-03-02T04:15:16.523Z,10.40
2023-03-02T04:17:46.320Z,10.27
2023-03-02T04:20:18.076Z,10.30
2023-03-02T04:22:51.840Z,9.32
2023-03-02T04:25:23.383Z,9.98
2023-03-02T04:27:55.824Z,9.52
2023-03-02T04:30:27.882Z,11.43
2023-03-02T04:32:57.425Z,9.52
2023-03-02T04:35:26.993Z,9.63
2023-03-02T04:37:55.646Z,11.60
2023-03-02T04:40:24.875Z,10.95
2023-03-02T04:42:53.156Z,13.00
2023-03-02T04:45:22.804Z,13.25
2023-03-02T04:47:51.159Z,11.90
2023-03-02T04:50:19.352Z,11.50
2023-03-02T04:52:47.973Z,12.50
2023-03-02T04:55:21.872Z,10.52
2023-03-02T04:57:51.045Z,10.43
2023-03-02T05:00:20.993Z,9.73
2023-03-02T05:02:50.823Z,12.73
2023-03-02T05:05:21.443Z,13.13
2023-03-02T05:07:49.700Z,11.15
2023-03-02T05:10:19.293Z,13.55
2023-03-02T05:12:58.137Z,11.00
2023-03-02T05:15:28.291Z,13.40
2023-03-02T05:17:58.278Z,12.80
2023-03-02T05:20:27.632Z,13.45
2023-03-02T05:22:57.020Z,12.48
2023-03-02T05:25:25.650Z,12.93
2023-03-02T05:27:54.010Z,12.38
2023-03-02T05:30:23.905Z,12.73
2023-03-02T05:32:53.233Z,13.52
2023-03-02T05:35:23.845Z,14.02
2023-03-02T05:37:52.615Z,11.27
2023-03-02T05:40:21.941Z,10.32
2023-03-02T05:42:50.680Z,10.73
2023-03-02T05:45:22.551Z,9.13
2023-03-02T05:47:50.994Z,10.63
2023-03-02T05:50:19.789Z,11.57
2023-03-02T05:52:49.582Z,10.10
2023-03-02T05:55:18.743Z,11.45
2023-03-02T05:57:49.172Z,12.90
2023-03-02T06:00:18.889Z,12.40
2023-03-02T06:02:47.345Z,15.57
2023-03-02T06:05:17.557Z,13.15
2023-03-02T06:07:48.117Z,13.95
2023-03-02T06:10:18.130Z,12.13
2023-03-02T06:12:46.601Z,15.05
2023-03-02T06:15:14.967Z,11.00
2023-03-02T06:17:43.386Z,11.75
2023-03-02T06:20:12.998Z,11.82
2023-03-02T06:22:42.636Z,13.98
2023-03-02T06:25:11.726Z,11.35
2023-03-02T06:27:42.060Z,11.57
2023-03-02T06:30:14.147Z,11.65
2023-03-02T06:32:43.252Z,11.23
2023-03-02T06:35:14.628Z,10.63
2023-03-02T06:37:44.239Z,10.82
2023-03-02T06:40:14.089Z,10.13
2023-03-02T06:42:45.957Z,11.70
2023-03-02T06:45:14.246Z,11.52
2023-03-02T06:47:42.462Z,10.45
2023-03-02T06:50:12.082Z,9.70
2023-03-02T06:52:40.333Z,9.88
2023-03-02T06:55:09.634Z,10.75
2023-03-02T06:57:37.957Z,9.82
2023-03-02T07:00:11.646Z,10.93
2023-03-02T07:02:39.884Z,8.85
2023-03-02T07:05:08.885Z,8.32
2023-03-02T07:07:37.168Z,9.73
2023-03-02T07:10:09.110Z,9.52
2023-03-02T07:12:37.425Z,8.90
2023-03-02T07:15:10.993Z,10.35
2023-03-02T07:17:39.383Z,7.50
2023-03-02T07:20:08.959Z,9.27
2023-03-02T07:22:37.430Z,11.95
2023-03-02T07:25:07.743Z,11.75
2023-03-02T07:27:35.888Z,13.57
2023-03-02T07:30:05.120Z,14.95
2023-03-02T07:32:34.821Z,15.65
2023-03-02T07:35:03.059Z,13.07
2023-03-02T07:37:31.254Z,13.00
2023-03-02T07:40:00.770Z,13.07
2023-03-02T07:42:29.396Z,11.15
2023-03-02T07:44:59.728Z,11.55
2023-03-02T07:47:30.965Z,12.80
2023-03-02T07:50:01.192Z,12.00
2023-03-02T07:52:30.680Z,12.07
2023-03-02T07:54:58.867Z,11.77
2023-03-02T07:57:27.476Z,13.70
2023-03-02T07:59:55.687Z,11.85
2023-03-02T08:02:25.911Z,11.43
2023-03-02T08:04:54.266Z,13.57
2023-03-02T08:07:23.822Z,12.65
2023-03-02T08:09:52.240Z,13.07
2023-03-02T08:12:20.441Z,11.85
2023-03-02T08:14:48.748Z,13.82
2023-03-02T08:17:17.005Z,12.90
2023-03-02T08:19:46.245Z,14.10
2023-03-02T08:22:14.510Z,14.85
2023-03-02T08:24:44.059Z,14.27
2023-03-02T08:27:15.575Z,15.70
2023-03-02T08:29:43.855Z,15.02
2023-03-02T08:32:13.002Z,15.57
2023-03-02T08:34:41.330Z,16.05
2023-03-02T08:37:09.687Z,15.88
2023-03-02T08:39:38.025Z,16.52
2023-03-02T08:42:08.041Z,15.05
2023-03-02T08:44:36.466Z,14.73
2023-03-02T08:47:04.673Z,15.10
2023-03-02T08:49:32.858Z,14.05
2023-03-02T08:52:01.126Z,15.60
2023-03-02T08:54:29.512Z,14.15
2023-03-02T08:56:57.797Z,13.63
2023-03-02T08:59:27.441Z,14.10
2023-03-02T09:01:55.661Z,12.20
2023-03-02T09:04:23.928Z,13.00
2023-03-02T09:06:52.180Z,11.73
2023-03-02T09:09:20.401Z,14.25
2023-03-02T09:11:48.587Z,13.88
2023-03-02T09:14:16.781Z,12.82
2023-03-02T09:16:47.018Z,13.80
2023-03-02T09:19:15.465Z,13.93
2023-03-02T09:21:43.663Z,13.63
2023-03-02T09:24:11.870Z,13.60
2023-03-02T09:26:40.118Z,12.63
2023-03-02T09:29:08.708Z,13.43
2023-03-02T09:31:38.314Z,11.10
2023-03-02T09:34:08.331Z,11.68
2023-03-02T09:36:36.572Z,9.77
2023-03-02T09:39:09.303Z,10.73
2023-03-02T09:42:14.082Z,11.30
2023-03-02T09:45:01.138Z,10.55
2023-03-02T09:47:37.074Z,11.70
2023-03-02T09:50:22.284Z,11.48
2023-03-02T09:53:04.108Z,10.95
2023-03-02T09:55:36.535Z,10.73
2023-03-02T09:58:07.275Z,10.95
2023-03-02T10:00:38.282Z,10.95
2023-03-02T10:03:16.700Z,9.57
2023-03-02T10:05:51.586Z,9.98
2023-03-02T10:08:22.337Z,9.32
2023-03-02T10:10:57.876Z,9.50
2023-03-02T10:13:30.070Z,8.75
2023-03-02T10:16:11.280Z,8.02
2023-03-02T10:18:44.826Z,10.18
2023-03-02T10:21:21.557Z,9.05
2023-03-02T10:23:57.320Z,9.25
2023-03-02T10:26:40.964Z,10.13
2023-03-02T10:29:32.114Z,8.55
2023-03-02T10:32:05.459Z,9.23
2023-03-02T10:34:36.917Z,8.80
2023-03-02T10:37:13.871Z,9.85
2023-03-02T10:39:42.205Z,8.88
2023-03-02T10:42:16.890Z,8.27
2023-03-02T10:44:49.992Z,8.90
2023-03-02T10:47:23.293Z,7.80
2023-03-02T10:49:55.504Z,8.43
2023-03-02T10:52:27.111Z,8.45
2023-03-02T10:55:04.540Z,9.70
2023-03-02T10:57:37.738Z,8.13
2023-03-02T11:00:16.359Z,8.98
2023-03-02T11:02:55.033Z,9.18
2023-03-02T11:05:29.567Z,8.25
2023-03-02T11:08:01.116Z,8.88
2023-03-02T11:10:31.976Z,9.20
2023-03-02T11:13:01.854Z,8.65
2023-03-02T11:15:37.692Z,8.20
2023-03-02T11:18:12.765Z,8.70
2023-03-02T11:20:44.621Z,7.60
2023-03-02T11:23:22.736Z,7.68
2023-03-02T11:25:55.219Z,8.70
2023-03-02T11:28:36.051Z,7.72
2023-03-02T11:31:07.965Z,7.38
2023-03-02T11:33:40.712Z,8.32
2023-03-02T11:36:16.982Z,8.55
2023-03-02T11:38:51.399Z,8.18
2023-03-02T11:41:29.779Z,8.15
2023-03-02T11:44:01.761Z,7.88
2023-03-02T11:46:33.322Z,6.88
2023-03-02T11:49:06.557Z,7.45
2023-03-02T11:51:37.839Z,5.50
2023-03-02T11:54:20.279Z,8.25
2023-03-02T11:56:48.476Z,7.13
2023-03-02T11:59:21.257Z,8.23
2023-03-02T12:01:52.765Z,7.78
2023-03-02T12:04:33.415Z,7.10
2023-03-02T12:07:04.224Z,6.70
2023-03-02T12:09:37.537Z,5.82
2023-03-02T12:12:40.844Z,7.45
2023-03-02T12:15:28.885Z,6.65
2023-03-02T12:17:57.161Z,7.82
2023-03-02T12:20:30.378Z,8.55
2023-03-02T12:23:09.783Z,8.30
2023-03-02T12:25:46.156Z,8.95
2023-03-02T12:28:32.077Z,8.82
2023-03-02T12:31:07.305Z,9.10
2023-03-02T12:33:43.237Z,8.82
2023-03-02T12:36:19.344Z,9.23
2023-03-02T12:39:02.957Z,9.82
2023-03-02T12:41:48.825Z,8.60
2023-03-02T12:44:31.600Z,9.13
2023-03-02T12:47:02.964Z,9.57
2023-03-02T12:49:50.910Z,8.23
2023-03-02T12:52:24.094Z,8.27
2023-03-02T12:55:01.973Z,7.78
2023-03-02T12:57:31.919Z,8.02
2023-03-02T13:00:02.431Z,7.30
2023-03-02T13:02:31.948Z,7.75
2023-03-02T13:05:02.715Z,7.15
2023-03-02T13:07:37.826Z,8.05
2023-03-02T13:10:17.681Z,7.50
2023-03-02T13:12:48.820Z,7.18
2023-03-02T13:15:18.546Z,7.20
2023-03-02T13:17:55.071Z,8.15
2023-03-02T13:20:25.372Z,7.25
2023-03-02T13:22:54.248Z,9.57
2023-03-02T13:25:26.336Z,8.50
2023-03-02T13:27:57.838Z,8.27
2023-03-02T13:30:29.117Z,7.20
2023-03-02T13:33:02.782Z,7.45
2023-03-02T13:35:32.935Z,8.10
2023-03-02T13:38:06.876Z,9.07
2023-03-02T13:40:48.206Z,6.18
2023-03-02T13:43:37.291Z,5.85
2023-03-02T13:46:08.579Z,5.25
2023-03-02T13:48:36.992Z,5.53
2023-03-02T13:51:16.900Z,5.50
2023-03-02T13:53:52.498Z,6.05
2023-03-02T13:56:21.638Z,5.95
2023-03-02T13:58:51.207Z,7.38
2023-03-02T14:01:19.641Z,6.22
2023-03-02T14:03:47.828Z,6.45
2023-03-02T14:06:18.634Z,6.95
2023-03-02T14:08:47.562Z,6.35
2023-03-02T14:11:17.147Z,6.53
2023-03-02T14:13:47.664Z,6.95
2023-03-02T14:16:18.439Z,6.80
2023-03-02T14:18:47.879Z,6.55
2023-03-02T14:21:18.160Z,6.75
2023-03-02T14:23:48.057Z,7.15
2023-03-02T14:26:28.754Z,6.85
2023-03-02T14:29:05.421Z,6.03
2023-03-02T14:31:36.054Z,6.70
2023-03-02T14:34:04.444Z,7.35
2023-03-02T14:36:35.483Z,6.72
2023-03-02T14:39:06.505Z,7.25
2023-03-02T14:41:51.264Z,7.25
2023-03-02T14:44:21.659Z,7.03
2023-03-02T14:46:51.469Z,8.02
2023-03-02T14:49:19.840Z,8.52
2023-03-02T14:51:55.919Z,8.40
2023-03-02T14:54:24.175Z,9.20
2023-03-02T14:56:52.827Z,8.00
2023-03-02T14:59:21.145Z,8.32
2023-03-02T15:01:50.713Z,9.07
2023-03-02T15:04:18.957Z,9.23
2023-03-02T15:06:47.471Z,8.70
2023-03-02T15:09:15.759Z,8.68
2023-03-02T15:11:46.109Z,9.60
2023-03-02T15:14:14.313Z,9.65
2023-03-02T15:16:42.882Z,10.02
2023-03-02T15:19:12.511Z,9.45
2023-03-02T15:21:44.977Z,9.18
2023-03-02T15:24:13.562Z,9.55
2023-03-02T15:26:42.223Z,9.00
2023-03-02T15:29:10.746Z,8.80
2023-03-02T15:31:38.938Z,9.75
2023-03-02T15:34:07.370Z,8.20
2023-03-02T15:36:36.900Z,9.65
2023-03-02T15:39:05.255Z,8.90
2023-03-02T15:41:33.684Z,9.02
2023-03-02T15:44:02.096Z,8.48
2023-03-02T15:46:30.618Z,9.60
2023-03-02T15:48:59.010Z,8.95
2023-03-02T15:51:27.244Z,9.38
2023-03-02T15:53:56.784Z,9.48
2023-03-02T15:56:28.353Z,9.15
2023-03-02T15:58:58.538Z,9.50
2023-03-02T16:01:26.706Z,9.05
2023-03-02T16:03:55.140Z,8.00
2023-03-02T16:06:24.306Z,8.70
2023-03-02T16:08:52.526Z,8.73
2023-03-02T16:11:23.379Z,9.68
2023-03-02T16:13:52.279Z,9.32
2023-03-02T16:16:21.565Z,9.43
2023-03-02T16:18:53.184Z,14.38
2023-03-02T16:21:21.427Z,12.15
2023-03-02T16:23:49.607Z,9.98
2023-03-02T16:26:19.453Z,10.13
2023-03-02T16:28:51.733Z,12.02
2023-03-02T16:31:21.327Z,12.23
2023-03-02T16:33:51.802Z,11.23
2023-03-02T16:36:20.708Z,11.25
2023-03-02T16:38:49.209Z,9.90
2023-03-02T16:41:19.726Z,11.93
2023-03-02T16:43:50.378Z,12.93
2023-03-02T16:46:21.220Z,9.05
2023-03-02T16:48:50.236Z,9.23
2023-03-02T16:51:19.802Z,10.07
2023-03-02T16:53:48.758Z,8.88
2023-03-02T16:56:17.086Z,7.70
2023-03-02T16:58:45.264Z,7.88
2023-03-02T17:01:15.867Z,11.98
2023-03-02T17:03:46.832Z,11.27
2023-03-02T17:06:16.854Z,12.45
2023-03-02T17:08:47.241Z,10.13
2023-03-02T17:11:15.415Z,8.88
2023-03-02T17:13:43.609Z,7.50
2023-03-02T17:16:12.640Z,8.80
2023-03-02T17:18:41.115Z,6.45
2023-03-02T17:21:10.699Z,6.10
2023-03-02T17:23:38.896Z,5.55
2023-03-02T17:26:09.956Z,5.88
2023-03-02T17:28:39.238Z,6.70
2023-03-02T17:31:08.222Z,6.50
2023-03-02T17:33:38.170Z,7.28
2023-03-02T17:36:08.591Z,8.02
2023-03-02T17:38:38.351Z,9.10
2023-03-02T17:41:07.741Z,10.95
2023-03-02T17:43:37.461Z,12.93
2023-03-02T17:46:11.034Z,16.38
2023-03-02T17:48:39.403Z,15.40
2023-03-02T17:51:11.780Z,14.02
2023-03-02T17:53:41.590Z,11.60
2023-03-02T17:56:11.184Z,16.13
2023-03-02T17:58:44.970Z,17.13
2023-03-02T18:01:15.597Z,14.50
2023-03-02T18:03:45.171Z,20.42
2023-03-02T18:06:13.741Z,15.40
2023-03-02T18:08:43.350Z,18.17
2023-03-02T18:11:11.651Z,20.27
2023-03-02T18:13:40.189Z,16.30
2023-03-02T18:16:08.731Z,16.88
2023-03-02T18:18:37.006Z,16.20
2023-03-02T18:21:05.594Z,13.50
2023-03-02T18:23:34.632Z,14.30
2023-03-02T18:26:04.219Z,15.18
2023-03-02T18:28:32.621Z,16.25
2023-03-02T18:31:01.015Z,12.00
2023-03-02T18:33:29.401Z,12.63
2023-03-02T18:35:57.609Z,12.07
2023-03-02T18:38:30.596Z,14.77
2023-03-02T18:41:00.571Z,13.52
2023-03-02T18:43:31.660Z,12.60
2023-03-02T18:46:00.413Z,12.60
2023-03-02T18:48:29.109Z,11.60
2023-03-02T18:50:57.409Z,12.38
2023-03-02T18:53:26.467Z,12.82
2023-03-02T18:55:55.980Z,12.30
2023-03-02T18:58:27.758Z,12.15
2023-03-02T19:00:57.407Z,12.43
2023-03-02T19:03:25.756Z,12.27
2023-03-02T19:05:57.563Z,14.57
2023-03-02T19:08:26.636Z,11.68
2023-03-02T19:10:56.444Z,12.40
2023-03-02T19:13:25.160Z,11.93
2023-03-02T19:15:54.958Z,11.40
2023-03-02T19:18:25.997Z,12.45
2023-03-02T19:20:55.659Z,11.45
2023-03-02T19:23:24.049Z,11.75
2023-03-02T19:25:52.290Z,11.32
2023-03-02T19:28:21.887Z,11.32
2023-03-02T19:30:50.658Z,11.38
2023-03-02T19:33:19.016Z,11.52
2023-03-02T19:35:50.778Z,11.50
2023-03-02T19:38:19.335Z,13.30
2023-03-02T19:40:49.400Z,11.90
2023-03-02T19:43:20.191Z,11.73
2023-03-02T19:45:48.506Z,11.25
2023-03-02T19:48:16.833Z,12.48
2023-03-02T19:50:47.695Z,12.40
2023-03-02T19:53:17.652Z,13.07
2023-03-02T19:55:45.889Z,11.40
2023-03-02T19:58:17.272Z,12.15
2023-03-02T20:00:45.979Z,11.88
2023-03-02T20:03:14.691Z,11.73
2023-03-02T20:05:42.972Z,10.23
2023-03-02T20:08:11.296Z,11.90
2023-03-02T20:10:43.557Z,11.90
2023-03-02T20:13:14.977Z,12.48
2023-03-02T20:15:48.669Z,12.43
2023-03-02T20:18:19.305Z,14.20
2023-03-02T20:20:48.348Z,13.98
2023-03-02T20:23:17.664Z,14.13
2023-03-02T20:25:48.529Z,13.40
2023-03-02T20:28:21.706Z,11.98
2023-03-02T20:30:52.566Z,16.08
2023-03-02T20:33:28.330Z,20.80
2023-03-02T20:35:58.296Z,18.23
2023-03-02T20:38:33.789Z,17.50
2023-03-02T20:41:03.776Z,16.17
2023-03-02T20:43:32.385Z,15.90
2023-03-02T20:46:01.654Z,14.50
2023-03-02T20:48:29.990Z,15.65
2023-03-02T20:50:58.239Z,15.00
2023-03-02T20:53:29.621Z,15.25
2023-03-02T20:55:58.821Z,12.32
2023-03-02T20:58:28.440Z,12.13
2023-03-02T21:00:57.283Z,12.98
2023-03-02T21:03:27.581Z,12.88
2023-03-02T21:05:56.928Z,12.73
2023-03-02T21:08:26.731Z,13.52
2023-03-02T21:10:54.984Z,14.93
2023-03-02T21:13:23.438Z,16.67
2023-03-02T21:15:53.578Z,14.82
2023-03-02T21:18:21.886Z,14.63
2023-03-02T21:20:50.083Z,14.63
2023-03-02T21:23:18.305Z,14.95
2023-03-02T21:25:47.269Z,14.35
2023-03-02T21:28:15.445Z,13.27
2023-03-02T21:30:43.729Z,12.82
2023-03-02T21:33:13.291Z,13.57
2023-03-02T21:35:41.598Z,12.90
2023-03-02T21:38:09.846Z,13.98
2023-03-02T21:40:43.020Z,12.30
2023-03-02T21:43:11.243Z,12.23
2023-03-02T21:45:39.589Z,13.50
2023-03-02T21:48:09.596Z,12.55
2023-03-02T21:50:40.267Z,13.27
2023-03-02T21:53:08.592Z,14.05
2023-03-02T21:55:37.879Z,12.90
2023-03-02T21:58:06.516Z,14.90
2023-03-02T22:00:36.701Z,14.88
2023-03-02T22:03:08.446Z,14.07
2023-03-02T22:05:41.186Z,15.05
2023-03-02T22:08:10.763Z,12.38
2023-03-02T22:10:42.029Z,13.77
2023-03-02T22:13:18.373Z,13.50
2023-03-02T22:15:47.607Z,12.55
2023-03-02T22:18:17.954Z,11.30
2023-03-02T22:20:49.324Z,13.23
2023-03-02T22:23:20.920Z,11.10
2023-03-02T22:25:50.804Z,12.02
2023-03-02T22:28:20.919Z,14.10
2023-03-02T22:30:50.821Z,11.38
2023-03-02T22:33:21.973Z,11.95
2023-03-02T22:35:53.121Z,13.73
2023-03-02T22:38:27.761Z,13.00
2023-03-02T22:40:57.006Z,11.68
2023-03-02T22:43:30.372Z,11.52
2023-03-02T22:46:00.694Z,12.70
2023-03-02T22:48:30.310Z,12.32
2023-03-02T22:50:59.958Z,12.73
2023-03-02T22:53:30.506Z,12.30
2023-03-02T22:56:00.693Z,13.35
2023-03-02T22:58:32.470Z,11.75
2023-03-02T23:01:02.084Z,11.32
2023-03-02T23:03:38.324Z,12.48
2023-03-02T23:06:30.082Z,10.00
2023-03-02T23:09:00.047Z,11.55
2023-03-02T23:11:29.589Z,10.88
2023-03-02T23:13:57.796Z,11.50
2023-03-02T23:16:28.317Z,11.40
2023-03-02T23:18:59.240Z,11.57
2023-03-02T23:21:34.343Z,11.98
2023-03-02T23:24:02.543Z,12.23
2023-03-02T23:26:30.803Z,10.68
2023-03-02T23:28:59.112Z,10.38
2023-03-02T23:31:27.343Z,9.40
2023-03-02T23:33:55.583Z,12.05
2023-03-02T23:36:23.764Z,15.30
2023-03-02T23:38:53.582Z,13.27
2023-03-02T23:41:21.915Z,10.98
2023-03-02T23:43:50.159Z,12.02
2023-03-02T23:46:18.404Z,11.52
2023-03-02T23:48:46.956Z,11.80
2023-03-02T23:51:15.229Z,11.60
2023-03-02T23:53:44.037Z,12.93
2023-03-02T23:56:13.557Z,11.35
2023-03-02T23:58:41.978Z,11.50
